sensor_id;sensor_type;location;lat;lon;timestamp;temperature;humidity
25320;DHT22;13256;49.012;8.610;2023-09-19T00:04:39;17.50;99.90
25320;DHT22;13256;49.012;8.610;2023-09-19T00:07:06;17.50;99.90
25320;DHT22;13256;49.012;8.610;2023-09-19T00:09:33;17.50;99.90
25320;DHT22;13256;49.012;8.610;2023-09-19T00:12:05;17.50;99.90
25320;DHT22;13256;49.012;8.610;2023-09-19T00:14:32;17.50;99.90
25320;DHT22;13256;49.012;8.610;2023-09-19T00:17:04;17.50;99.90
25320;DHT22;13256;49.012;8.610;2023-09-19T00:19:35;17.60;99.90
25320;DHT22;13256;49.012;8.610;2023-09-19T00:22:06;17.60;99.90
25320;DHT22;13256;49.012;8.610;2023-09-19T00:24:34;17.50;99.90
25320;DHT22;13256;49.012;8.610;2023-09-19T00:27:02;17.50;99.90
25320;DHT22;13256;49.012;8.610;2023-09-19T00:29:31;17.60;99.90
25320;DHT22;13256;49.012;8.610;2023-09-19T00:31:59;17.50;99.90
25320;DHT22;13256;49.012;8.610;2023-09-19T00:34:26;17.50;99.90
25320;DHT22;13256;49.012;8.610;2023-09-19T00:36:53;17.50;99.90
25320;DHT22;13256;49.012;8.610;2023-09-19T00:39:20;17.50;99.90
25320;DHT22;13256;49.012;8.610;2023-09-19T00:41:50;17.50;99.90
25320;DHT22;13256;49.012;8.610;2023-09-19T00:44:42;17.60;99.90
25320;DHT22;13256;49.012;8.610;2023-09-19T00:47:09;17.60;99.90
25320;DHT22;13256;49.012;8.610;2023-09-19T00:49:37;17.50;99.90
25320;DHT22;13256;49.012;8.610;2023-09-19T00:52:04;17.50;99.90
25320;DHT22;13256;49.012;8.610;2023-09-19T00:54:31;17.50;99.90
25320;DHT22;13256;49.012;8.610;2023-09-19T00:57:00;17.50;99.90
25320;DHT22;13256;49.012;8.610;2023-09-19T00:59:54;17.50;99.90
25320;DHT22;13256;49.012;8.610;2023-09-19T01:02:21;17.40;99.90
25320;DHT22;13256;49.012;8.610;2023-09-19T01:04:52;17.40;99.90
25320;DHT22;13256;49.012;8.610;2023-09-19T01:07:23;17.40;99.90
25320;DHT22;13256;49.012;8.610;2023-09-19T01:09:53;17.40;99.90
25320;DHT22;13256;49.012;8.610;2023-09-19T01:12:24;17.40;99.90
25320;DHT22;13256;49.012;8.610;2023-09-19T01:14:55;17.40;99.90
25320;DHT22;13256;49.012;8.610;2023-09-19T01:17:32;17.40;99.90
25320;DHT22;13256;49.012;8.610;2023-09-19T01:22:42;17.40;99.90
25320;DHT22;13256;49.012;8.610;2023-09-19T01:25:26;17.40;99.90
25320;DHT22;13256;49.012;8.610;2023-09-19T01:30:31;17.50;99.90
25320;DHT22;13256;49.012;8.610;2023-09-19T01:33:02;17.50;99.90
25320;DHT22;13256;49.012;8.610;2023-09-19T01:35:30;17.60;99.90
25320;DHT22;13256;49.012;8.610;2023-09-19T01:37:57;17.60;99.90
25320;DHT22;13256;49.012;8.610;2023-09-19T01:40:23;17.60;99.90
25320;DHT22;13256;49.012;8.610;2023-09-19T01:50:50;17.70;99.90
25320;DHT22;13256;49.012;8.610;2023-09-19T01:53:25;17.70;99.90
25320;DHT22;13256;49.012;8.610;2023-09-19T01:55:59;17.80;99.90
25320;DHT22;13256;49.012;8.610;2023-09-19T02:01:05;17.80;99.90
25320;DHT22;13256;49.012;8.610;2023-09-19T02:03:33;17.80;99.90
25320;DHT22;13256;49.012;8.610;2023-09-19T02:06:01;17.90;99.90
25320;DHT22;13256;49.012;8.610;2023-09-19T02:08:27;17.90;99.90
25320;DHT22;13256;49.012;8.610;2023-09-19T02:10:59;18.00;99.90
25320;DHT22;13256;49.012;8.610;2023-09-19T02:13:26;18.00;99.90
25320;DHT22;13256;49.012;8.610;2023-09-19T02:15:54;18.10;99.90
25320;DHT22;13256;49.012;8.610;2023-09-19T02:18:23;18.10;99.90
25320;DHT22;13256;49.012;8.610;2023-09-19T02:20:53;18.00;99.90
25320;DHT22;13256;49.012;8.610;2023-09-19T02:23:23;18.00;99.90
25320;DHT22;13256;49.012;8.610;2023-09-19T02:25:55;18.00;99.90
25320;DHT22;13256;49.012;8.610;2023-09-19T02:28:27;17.90;99.90
25320;DHT22;13256;49.012;8.610;2023-09-19T02:30:59;18.00;99.90
25320;DHT22;13256;49.012;8.610;2023-09-19T02:33:26;18.00;99.90
25320;DHT22;13256;49.012;8.610;2023-09-19T02:35:56;18.00;99.90
25320;DHT22;13256;49.012;8.610;2023-09-19T02:38:29;18.00;99.90
25320;DHT22;13256;49.012;8.610;2023-09-19T02:43:53;17.90;99.90
25320;DHT22;13256;49.012;8.610;2023-09-19T02:46:20;17.90;99.90
25320;DHT22;13256;49.012;8.610;2023-09-19T02:49:16;17.90;99.90
25320;DHT22;13256;49.012;8.610;2023-09-19T02:51:47;17.90;99.90
25320;DHT22;13256;49.012;8.610;2023-09-19T02:54:15;17.90;99.90
25320;DHT22;13256;49.012;8.610;2023-09-19T02:56:42;17.90;99.90
25320;DHT22;13256;49.012;8.610;2023-09-19T02:59:10;17.90;99.90
25320;DHT22;13256;49.012;8.610;2023-09-19T03:01:43;17.90;99.90
25320;DHT22;13256;49.012;8.610;2023-09-19T03:04:14;17.90;99.90
25320;DHT22;13256;49.012;8.610;2023-09-19T03:06:50;17.90;99.90
25320;DHT22;13256;49.012;8.610;2023-09-19T03:09:17;17.80;99.90
25320;DHT22;13256;49.012;8.610;2023-09-19T03:11:45;17.80;99.90
25320;DHT22;13256;49.012;8.610;2023-09-19T03:14:13;17.80;99.90
25320;DHT22;13256;49.012;8.610;2023-09-19T03:16:43;17.80;99.90
25320;DHT22;13256;49.012;8.610;2023-09-19T03:19:14;17.80;99.90
25320;DHT22;13256;49.012;8.610;2023-09-19T03:21:42;17.80;99.90
25320;DHT22;13256;49.012;8.610;2023-09-19T03:24:09;17.80;99.90
25320;DHT22;13256;49.012;8.610;2023-09-19T03:26:39;17.70;99.90
25320;DHT22;13256;49.012;8.610;2023-09-19T03:29:06;17.70;99.90
25320;DHT22;13256;49.012;8.610;2023-09-19T03:31:34;17.70;99.90
25320;DHT22;13256;49.012;8.610;2023-09-19T03:34:27;17.60;99.90
25320;DHT22;13256;49.012;8.610;2023-09-19T03:37:02;17.60;99.90
25320;DHT22;13256;49.012;8.610;2023-09-19T03:39:33;17.60;99.90
25320;DHT22;13256;49.012;8.610;2023-09-19T03:42:02;17.50;99.90
25320;DHT22;13256;49.012;8.610;2023-09-19T03:44:36;17.50;99.90
25320;DHT22;13256;49.012;8.610;2023-09-19T03:47:04;17.50;99.90
25320;DHT22;13256;49.012;8.610;2023-09-19T03:49:31;17.40;99.90
25320;DHT22;13256;49.012;8.610;2023-09-19T03:52:01;17.30;99.90
25320;DHT22;13256;49.012;8.610;2023-09-19T03:54:33;17.40;99.90
25320;DHT22;13256;49.012;8.610;2023-09-19T03:57:02;17.30;99.90
25320;DHT22;13256;49.012;8.610;2023-09-19T03:59:29;17.30;99.90
25320;DHT22;13256;49.012;8.610;2023-09-19T04:01:56;17.30;99.90
25320;DHT22;13256;49.012;8.610;2023-09-19T04:04:26;17.30;99.90
25320;DHT22;13256;49.012;8.610;2023-09-19T04:06:55;17.30;99.90
25320;DHT22;13256;49.012;8.610;2023-09-19T04:09:25;17.30;99.90
25320;DHT22;13256;49.012;8.610;2023-09-19T04:11:52;17.30;99.90
25320;DHT22;13256;49.012;8.610;2023-09-19T04:14:19;17.30;99.90
25320;DHT22;13256;49.012;8.610;2023-09-19T04:16:49;17.30;99.90
25320;DHT22;13256;49.012;8.610;2023-09-19T04:19:16;17.20;99.90
25320;DHT22;13256;49.012;8.610;2023-09-19T04:21:44;17.20;99.90
25320;DHT22;13256;49.012;8.610;2023-09-19T04:24:11;17.20;99.90
25320;DHT22;13256;49.012;8.610;2023-09-19T04:26:39;17.20;99.90
25320;DHT22;13256;49.012;8.610;2023-09-19T04:29:09;17.30;99.90
25320;DHT22;13256;49.012;8.610;2023-09-19T04:31:37;17.30;99.90
25320;DHT22;13256;49.012;8.610;2023-09-19T04:34:07;17.30;99.90
25320;DHT22;13256;49.012;8.610;2023-09-19T04:36:34;17.30;99.90
25320;DHT22;13256;49.012;8.610;2023-09-19T04:39:03;17.30;99.90
25320;DHT22;13256;49.012;8.610;2023-09-19T04:41:34;17.30;99.90
25320;DHT22;13256;49.012;8.610;2023-09-19T04:44:00;17.30;99.90
25320;DHT22;13256;49.012;8.610;2023-09-19T04:46:27;17.30;99.90
25320;DHT22;13256;49.012;8.610;2023-09-19T04:48:57;17.30;99.90
25320;DHT22;13256;49.012;8.610;2023-09-19T04:51:26;17.30;99.90
25320;DHT22;13256;49.012;8.610;2023-09-19T04:53:55;17.30;99.90
25320;DHT22;13256;49.012;8.610;2023-09-19T04:56:25;17.20;99.90
25320;DHT22;13256;49.012;8.610;2023-09-19T04:58:51;17.20;99.90
25320;DHT22;13256;49.012;8.610;2023-09-19T05:01:24;17.20;99.90
25320;DHT22;13256;49.012;8.610;2023-09-19T05:03:51;17.20;99.90
25320;DHT22;13256;49.012;8.610;2023-09-19T05:06:49;17.20;99.90
25320;DHT22;13256;49.012;8.610;2023-09-19T05:09:17;17.20;99.90
25320;DHT22;13256;49.012;8.610;2023-09-19T05:11:46;17.20;99.90
25320;DHT22;13256;49.012;8.610;2023-09-19T05:14:13;17.20;99.90
25320;DHT22;13256;49.012;8.610;2023-09-19T05:16:40;17.10;99.90
25320;DHT22;13256;49.012;8.610;2023-09-19T05:19:06;17.10;99.90
25320;DHT22;13256;49.012;8.610;2023-09-19T05:21:34;17.10;99.90
25320;DHT22;13256;49.012;8.610;2023-09-19T05:24:02;17.10;99.90
25320;DHT22;13256;49.012;8.610;2023-09-19T05:26:28;17.10;99.90
25320;DHT22;13256;49.012;8.610;2023-09-19T05:28:55;17.00;99.90
25320;DHT22;13256;49.012;8.610;2023-09-19T05:34:33;17.00;99.90
25320;DHT22;13256;49.012;8.610;2023-09-19T05:37:01;17.00;99.90
25320;DHT22;13256;49.012;8.610;2023-09-19T05:39:29;17.00;99.90
25320;DHT22;13256;49.012;8.610;2023-09-19T05:41:56;17.10;99.90
25320;DHT22;13256;49.012;8.610;2023-09-19T05:44:23;17.00;99.90
25320;DHT22;13256;49.012;8.610;2023-09-19T05:46:50;17.00;99.90
25320;DHT22;13256;49.012;8.610;2023-09-19T05:49:18;17.00;99.90
25320;DHT22;13256;49.012;8.610;2023-09-19T05:51:48;17.00;99.90
25320;DHT22;13256;49.012;8.610;2023-09-19T05:54:14;17.00;99.90
25320;DHT22;13256;49.012;8.610;2023-09-19T05:56:42;17.00;99.90
25320;DHT22;13256;49.012;8.610;2023-09-19T05:59:08;16.90;99.90
25320;DHT22;13256;49.012;8.610;2023-09-19T06:01:35;16.90;99.90
25320;DHT22;13256;49.012;8.610;2023-09-19T06:04:03;16.90;99.90
25320;DHT22;13256;49.012;8.610;2023-09-19T06:06:31;16.90;99.90
25320;DHT22;13256;49.012;8.610;2023-09-19T06:08:57;17.00;99.90
25320;DHT22;13256;49.012;8.610;2023-09-19T06:11:25;17.00;99.90
25320;DHT22;13256;49.012;8.610;2023-09-19T06:13:55;17.00;99.90
25320;DHT22;13256;49.012;8.610;2023-09-19T06:16:23;17.00;99.90
25320;DHT22;13256;49.012;8.610;2023-09-19T06:18:50;17.00;99.90
25320;DHT22;13256;49.012;8.610;2023-09-19T06:21:17;17.00;99.90
25320;DHT22;13256;49.012;8.610;2023-09-19T06:23:44;17.00;99.90
25320;DHT22;13256;49.012;8.610;2023-09-19T06:26:11;17.00;99.90
25320;DHT22;13256;49.012;8.610;2023-09-19T06:28:40;16.90;99.90
25320;DHT22;13256;49.012;8.610;2023-09-19T06:31:06;16.90;99.90
25320;DHT22;13256;49.012;8.610;2023-09-19T06:33:38;16.90;99.90
25320;DHT22;13256;49.012;8.610;2023-09-19T06:36:06;16.90;99.90
25320;DHT22;13256;49.012;8.610;2023-09-19T06:38:38;16.90;99.90
25320;DHT22;13256;49.012;8.610;2023-09-19T06:41:10;16.80;99.90
25320;DHT22;13256;49.012;8.610;2023-09-19T06:43:39;16.80;99.90
25320;DHT22;13256;49.012;8.610;2023-09-19T06:46:08;16.80;99.90
25320;DHT22;13256;49.012;8.610;2023-09-19T06:48:38;16.80;99.90
25320;DHT22;13256;49.012;8.610;2023-09-19T06:51:06;16.80;99.90
25320;DHT22;13256;49.012;8.610;2023-09-19T06:53:39;16.80;99.90
25320;DHT22;13256;49.012;8.610;2023-09-19T06:56:06;16.80;99.90
25320;DHT22;13256;49.012;8.610;2023-09-19T06:58:33;16.90;99.90
25320;DHT22;13256;49.012;8.610;2023-09-19T07:01:02;16.90;99.90
25320;DHT22;13256;49.012;8.610;2023-09-19T07:03:30;16.90;99.90
25320;DHT22;13256;49.012;8.610;2023-09-19T07:06:01;17.00;99.90
25320;DHT22;13256;49.012;8.610;2023-09-19T07:08:31;17.00;99.90
25320;DHT22;13256;49.012;8.610;2023-09-19T07:10:57;17.00;99.90
25320;DHT22;13256;49.012;8.610;2023-09-19T07:13:24;17.10;99.90
25320;DHT22;13256;49.012;8.610;2023-09-19T07:15:51;17.10;99.90
25320;DHT22;13256;49.012;8.610;2023-09-19T07:18:18;17.10;99.90
25320;DHT22;13256;49.012;8.610;2023-09-19T07:20:45;17.10;99.90
25320;DHT22;13256;49.012;8.610;2023-09-19T07:23:17;17.10;99.90
25320;DHT22;13256;49.012;8.610;2023-09-19T07:25:46;17.10;99.90
25320;DHT22;13256;49.012;8.610;2023-09-19T07:28:16;17.10;99.90
25320;DHT22;13256;49.012;8.610;2023-09-19T07:30:43;17.20;99.90
25320;DHT22;13256;49.012;8.610;2023-09-19T07:33:13;17.20;99.90
25320;DHT22;13256;49.012;8.610;2023-09-19T07:35:39;17.40;99.90
25320;DHT22;13256;49.012;8.610;2023-09-19T07:38:07;17.40;99.90
25320;DHT22;13256;49.012;8.610;2023-09-19T07:40:34;17.50;99.90
25320;DHT22;13256;49.012;8.610;2023-09-19T07:43:04;17.60;99.90
25320;DHT22;13256;49.012;8.610;2023-09-19T07:45:32;17.70;99.90
25320;DHT22;13256;49.012;8.610;2023-09-19T07:47:59;17.90;99.90
25320;DHT22;13256;49.012;8.610;2023-09-19T07:50:32;17.90;99.90
25320;DHT22;13256;49.012;8.610;2023-09-19T07:52:59;18.10;99.90
25320;DHT22;13256;49.012;8.610;2023-09-19T07:55:27;18.10;99.90
25320;DHT22;13256;49.012;8.610;2023-09-19T07:57:54;18.10;99.90
25320;DHT22;13256;49.012;8.610;2023-09-19T08:00:23;18.10;99.90
25320;DHT22;13256;49.012;8.610;2023-09-19T08:02:49;18.10;99.90
25320;DHT22;13256;49.012;8.610;2023-09-19T08:05:31;18.20;99.90
25320;DHT22;13256;49.012;8.610;2023-09-19T08:07:59;18.20;99.90
25320;DHT22;13256;49.012;8.610;2023-09-19T08:10:27;18.20;99.90
25320;DHT22;13256;49.012;8.610;2023-09-19T08:12:59;18.20;99.90
25320;DHT22;13256;49.012;8.610;2023-09-19T08:15:26;18.20;99.90
25320;DHT22;13256;49.012;8.610;2023-09-19T08:17:56;18.20;99.90
25320;DHT22;13256;49.012;8.610;2023-09-19T08:20:24;18.30;99.90
25320;DHT22;13256;49.012;8.610;2023-09-19T08:22:55;18.30;99.90
25320;DHT22;13256;49.012;8.610;2023-09-19T08:25:22;18.40;99.90
25320;DHT22;13256;49.012;8.610;2023-09-19T08:27:54;18.50;99.90
25320;DHT22;13256;49.012;8.610;2023-09-19T08:30:21;18.60;99.90
25320;DHT22;13256;49.012;8.610;2023-09-19T08:33:00;18.70;99.90
25320;DHT22;13256;49.012;8.610;2023-09-19T08:35:27;18.90;99.90
25320;DHT22;13256;49.012;8.610;2023-09-19T08:37:54;19.10;99.90
25320;DHT22;13256;49.012;8.610;2023-09-19T08:40:24;19.30;99.90
25320;DHT22;13256;49.012;8.610;2023-09-19T08:42:55;19.50;99.90
25320;DHT22;13256;49.012;8.610;2023-09-19T08:45:23;19.70;99.90
25320;DHT22;13256;49.012;8.610;2023-09-19T08:53:41;20.20;99.90
25320;DHT22;13256;49.012;8.610;2023-09-19T08:56:12;20.20;99.90
25320;DHT22;13256;49.012;8.610;2023-09-19T08:59:04;20.10;99.90
25320;DHT22;13256;49.012;8.610;2023-09-19T09:01:31;20.00;99.90
25320;DHT22;13256;49.012;8.610;2023-09-19T09:03:58;19.80;99.90
25320;DHT22;13256;49.012;8.610;2023-09-19T09:06:26;19.80;99.90
25320;DHT22;13256;49.012;8.610;2023-09-19T09:08:54;19.60;99.90
25320;DHT22;13256;49.012;8.610;2023-09-19T09:11:22;19.60;99.90
25320;DHT22;13256;49.012;8.610;2023-09-19T09:13:54;19.60;99.90
25320;DHT22;13256;49.012;8.610;2023-09-19T09:16:21;19.60;99.90
25320;DHT22;13256;49.012;8.610;2023-09-19T09:18:52;19.60;99.90
25320;DHT22;13256;49.012;8.610;2023-09-19T09:21:21;19.70;99.90
25320;DHT22;13256;49.012;8.610;2023-09-19T09:23:48;19.80;99.90
25320;DHT22;13256;49.012;8.610;2023-09-19T09:26:18;19.90;99.90
25320;DHT22;13256;49.012;8.610;2023-09-19T09:29:03;20.20;99.90
25320;DHT22;13256;49.012;8.610;2023-09-19T09:31:35;20.60;99.90
25320;DHT22;13256;49.012;8.610;2023-09-19T09:34:13;20.90;99.90
25320;DHT22;13256;49.012;8.610;2023-09-19T09:36:40;21.10;99.90
25320;DHT22;13256;49.012;8.610;2023-09-19T09:39:10;21.20;99.90
25320;DHT22;13256;49.012;8.610;2023-09-19T09:41:45;21.30;99.90
25320;DHT22;13256;49.012;8.610;2023-09-19T09:44:14;21.40;99.90
25320;DHT22;13256;49.012;8.610;2023-09-19T09:46:42;21.50;99.90
25320;DHT22;13256;49.012;8.610;2023-09-19T09:49:48;21.60;99.90
25320;DHT22;13256;49.012;8.610;2023-09-19T09:52:21;21.70;99.90
25320;DHT22;13256;49.012;8.610;2023-09-19T09:55:00;21.60;99.90
25320;DHT22;13256;49.012;8.610;2023-09-19T09:57:28;21.50;99.90
25320;DHT22;13256;49.012;8.610;2023-09-19T09:59:57;21.50;99.90
25320;DHT22;13256;49.012;8.610;2023-09-19T10:02:52;21.60;99.90
25320;DHT22;13256;49.012;8.610;2023-09-19T10:05:20;21.70;99.90
25320;DHT22;13256;49.012;8.610;2023-09-19T10:07:47;21.60;99.90
25320;DHT22;13256;49.012;8.610;2023-09-19T10:10:30;21.50;99.90
25320;DHT22;13256;49.012;8.610;2023-09-19T10:13:12;21.30;99.90
25320;DHT22;13256;49.012;8.610;2023-09-19T10:15:40;21.10;99.90
25320;DHT22;13256;49.012;8.610;2023-09-19T10:18:23;21.00;99.90
25320;DHT22;13256;49.012;8.610;2023-09-19T10:20:52;20.90;99.90
25320;DHT22;13256;49.012;8.610;2023-09-19T10:23:20;21.10;99.90
25320;DHT22;13256;49.012;8.610;2023-09-19T10:25:49;21.50;99.90
25320;DHT22;13256;49.012;8.610;2023-09-19T10:28:17;21.60;99.90
25320;DHT22;13256;49.012;8.610;2023-09-19T10:30:49;22.00;99.90
25320;DHT22;13256;49.012;8.610;2023-09-19T10:33:20;22.40;99.90
25320;DHT22;13256;49.012;8.610;2023-09-19T10:35:48;22.60;99.90
25320;DHT22;13256;49.012;8.610;2023-09-19T10:38:18;22.80;99.90
25320;DHT22;13256;49.012;8.610;2023-09-19T10:40:55;23.10;99.90
25320;DHT22;13256;49.012;8.610;2023-09-19T10:43:28;23.10;99.90
25320;DHT22;13256;49.012;8.610;2023-09-19T10:46:02;23.10;99.90
25320;DHT22;13256;49.012;8.610;2023-09-19T10:48:30;23.00;99.90
25320;DHT22;13256;49.012;8.610;2023-09-19T10:51:05;23.00;99.90
25320;DHT22;13256;49.012;8.610;2023-09-19T10:54:08;23.10;99.90
25320;DHT22;13256;49.012;8.610;2023-09-19T10:56:31;23.00;99.90
25320;DHT22;13256;49.012;8.610;2023-09-19T11:01:41;23.30;99.90
25320;DHT22;13256;49.012;8.610;2023-09-19T11:07:10;23.90;99.90
25320;DHT22;13256;49.012;8.610;2023-09-19T11:15:07;23.80;99.90
25320;DHT22;13256;49.012;8.610;2023-09-19T11:17:42;23.40;99.90
25320;DHT22;13256;49.012;8.610;2023-09-19T11:20:16;23.10;99.90
25320;DHT22;13256;49.012;8.610;2023-09-19T11:30:33;22.40;99.90
25320;DHT22;13256;49.012;8.610;2023-09-19T11:33:17;22.50;99.90
25320;DHT22;13256;49.012;8.610;2023-09-19T11:43:48;21.90;99.90
25320;DHT22;13256;49.012;8.610;2023-09-19T11:46:21;22.10;99.90
25320;DHT22;13256;49.012;8.610;2023-09-19T11:48:53;22.30;99.90
25320;DHT22;13256;49.012;8.610;2023-09-19T11:51:22;22.30;99.90
25320;DHT22;13256;49.012;8.610;2023-09-19T11:53:50;22.40;99.90
25320;DHT22;13256;49.012;8.610;2023-09-19T11:56:18;22.80;99.90
25320;DHT22;13256;49.012;8.610;2023-09-19T11:58:50;23.20;99.90
25320;DHT22;13256;49.012;8.610;2023-09-19T12:03:59;23.40;99.90
25320;DHT22;13256;49.012;8.610;2023-09-19T12:06:26;23.50;99.90
25320;DHT22;13256;49.012;8.610;2023-09-19T12:08:53;23.60;99.90
25320;DHT22;13256;49.012;8.610;2023-09-19T12:11:27;23.60;99.90
25320;DHT22;13256;49.012;8.610;2023-09-19T12:13:58;23.40;99.90
25320;DHT22;13256;49.012;8.610;2023-09-19T12:16:27;23.40;99.90
25320;DHT22;13256;49.012;8.610;2023-09-19T12:18:58;23.50;99.90
25320;DHT22;13256;49.012;8.610;2023-09-19T12:21:44;23.80;99.90
25320;DHT22;13256;49.012;8.610;2023-09-19T12:24:14;24.30;99.90
25320;DHT22;13256;49.012;8.610;2023-09-19T12:26:43;24.60;99.90
25320;DHT22;13256;49.012;8.610;2023-09-19T12:29:19;24.60;99.90
25320;DHT22;13256;49.012;8.610;2023-09-19T12:34:22;24.90;99.90
25320;DHT22;13256;49.012;8.610;2023-09-19T12:37:01;24.60;98.30
25320;DHT22;13256;49.012;8.610;2023-09-19T12:39:31;24.20;99.90
25320;DHT22;13256;49.012;8.610;2023-09-19T12:42:01;24.40;99.90
25320;DHT22;13256;49.012;8.610;2023-09-19T12:44:30;24.60;99.90
25320;DHT22;13256;49.012;8.610;2023-09-19T12:46:57;24.90;99.60
25320;DHT22;13256;49.012;8.610;2023-09-19T12:49:27;24.50;99.90
25320;DHT22;13256;49.012;8.610;2023-09-19T12:51:54;24.40;99.90
25320;DHT22;13256;49.012;8.610;2023-09-19T12:54:21;24.50;99.90
25320;DHT22;13256;49.012;8.610;2023-09-19T12:56:51;24.50;99.90
25320;DHT22;13256;49.012;8.610;2023-09-19T12:59:28;24.60;99.90
25320;DHT22;13256;49.012;8.610;2023-09-19T13:02:04;24.60;99.40
25320;DHT22;13256;49.012;8.610;2023-09-19T13:04:37;24.70;99.60
25320;DHT22;13256;49.012;8.610;2023-09-19T13:07:07;24.50;98.60
25320;DHT22;13256;49.012;8.610;2023-09-19T13:09:35;24.50;99.60
25320;DHT22;13256;49.012;8.610;2023-09-19T13:12:04;24.80;99.90
25320;DHT22;13256;49.012;8.610;2023-09-19T13:14:34;25.00;99.20
25320;DHT22;13256;49.012;8.610;2023-09-19T13:17:08;25.10;99.60
25320;DHT22;13256;49.012;8.610;2023-09-19T13:19:47;25.30;99.70
25320;DHT22;13256;49.012;8.610;2023-09-19T13:25:18;25.80;96.90
25320;DHT22;13256;49.012;8.610;2023-09-19T13:27:52;25.40;96.80
25320;DHT22;13256;49.012;8.610;2023-09-19T13:30:21;25.00;97.10
25320;DHT22;13256;49.012;8.610;2023-09-19T13:32:48;25.00;96.60
25320;DHT22;13256;49.012;8.610;2023-09-19T13:35:15;24.80;95.70
25320;DHT22;13256;49.012;8.610;2023-09-19T13:37:42;24.40;96.60
25320;DHT22;13256;49.012;8.610;2023-09-19T13:40:10;24.20;97.20
25320;DHT22;13256;49.012;8.610;2023-09-19T13:42:39;24.20;97.80
25320;DHT22;13256;49.012;8.610;2023-09-19T13:45:07;24.30;96.30
25320;DHT22;13256;49.012;8.610;2023-09-19T13:47:41;24.40;97.10
25320;DHT22;13256;49.012;8.610;2023-09-19T13:50:08;24.50;97.20
25320;DHT22;13256;49.012;8.610;2023-09-19T13:52:36;24.50;97.50
25320;DHT22;13256;49.012;8.610;2023-09-19T13:55:04;24.60;96.30
25320;DHT22;13256;49.012;8.610;2023-09-19T13:57:31;24.40;96.20
25320;DHT22;13256;49.012;8.610;2023-09-19T14:00:27;24.30;96.40
25320;DHT22;13256;49.012;8.610;2023-09-19T14:02:55;24.00;96.60
25320;DHT22;13256;49.012;8.610;2023-09-19T14:05:24;24.00;97.20
25320;DHT22;13256;49.012;8.610;2023-09-19T14:07:54;24.10;96.90
25320;DHT22;13256;49.012;8.610;2023-09-19T14:10:31;24.00;96.30
25320;DHT22;13256;49.012;8.610;2023-09-19T14:12:58;24.20;97.50
25320;DHT22;13256;49.012;8.610;2023-09-19T14:15:27;24.30;97.10
25320;DHT22;13256;49.012;8.610;2023-09-19T14:18:01;24.30;97.40
25320;DHT22;13256;49.012;8.610;2023-09-19T14:20:31;24.20;96.00
25320;DHT22;13256;49.012;8.610;2023-09-19T14:23:00;24.10;97.40
25320;DHT22;13256;49.012;8.610;2023-09-19T14:25:30;23.90;96.60
25320;DHT22;13256;49.012;8.610;2023-09-19T14:27:58;23.70;96.00
25320;DHT22;13256;49.012;8.610;2023-09-19T14:30:27;23.60;96.40
25320;DHT22;13256;49.012;8.610;2023-09-19T14:33:00;23.60;97.40
25320;DHT22;13256;49.012;8.610;2023-09-19T14:35:28;23.70;97.20
25320;DHT22;13256;49.012;8.610;2023-09-19T14:38:03;23.70;97.40
25320;DHT22;13256;49.012;8.610;2023-09-19T14:40:32;23.70;97.40
25320;DHT22;13256;49.012;8.610;2023-09-19T14:43:01;23.80;96.70
25320;DHT22;13256;49.012;8.610;2023-09-19T14:45:32;24.00;96.70
25320;DHT22;13256;49.012;8.610;2023-09-19T14:47:59;24.20;97.90
25320;DHT22;13256;49.012;8.610;2023-09-19T14:50:26;24.40;97.10
25320;DHT22;13256;49.012;8.610;2023-09-19T14:52:53;24.40;96.20
25320;DHT22;13256;49.012;8.610;2023-09-19T14:55:21;24.20;95.40
25320;DHT22;13256;49.012;8.610;2023-09-19T14:57:50;24.00;95.30
25320;DHT22;13256;49.012;8.610;2023-09-19T15:00:19;23.90;95.50
25320;DHT22;13256;49.012;8.610;2023-09-19T15:02:47;24.00;96.00
25320;DHT22;13256;49.012;8.610;2023-09-19T15:05:17;24.00;95.80
25320;DHT22;13256;49.012;8.610;2023-09-19T15:07:46;24.00;95.10
25320;DHT22;13256;49.012;8.610;2023-09-19T15:10:14;23.80;95.10
25320;DHT22;13256;49.012;8.610;2023-09-19T15:12:41;23.70;95.90
25320;DHT22;13256;49.012;8.610;2023-09-19T15:15:08;23.50;95.70
25320;DHT22;13256;49.012;8.610;2023-09-19T15:17:35;23.30;96.30
25320;DHT22;13256;49.012;8.610;2023-09-19T15:20:02;23.30;96.50
25320;DHT22;13256;49.012;8.610;2023-09-19T15:22:33;23.10;97.00
25320;DHT22;13256;49.012;8.610;2023-09-19T15:25:03;23.20;97.20
25320;DHT22;13256;49.012;8.610;2023-09-19T15:27:31;23.20;97.40
25320;DHT22;13256;49.012;8.610;2023-09-19T15:29:59;23.30;97.40
25320;DHT22;13256;49.012;8.610;2023-09-19T15:32:27;23.40;98.00
25320;DHT22;13256;49.012;8.610;2023-09-19T15:34:54;23.40;97.60
25320;DHT22;13256;49.012;8.610;2023-09-19T15:37:21;23.30;97.90
25320;DHT22;13256;49.012;8.610;2023-09-19T15:39:51;23.30;98.90
25320;DHT22;13256;49.012;8.610;2023-09-19T15:42:18;23.40;98.10
25320;DHT22;13256;49.012;8.610;2023-09-19T15:44:51;23.40;98.50
25320;DHT22;13256;49.012;8.610;2023-09-19T15:47:20;23.30;97.60
25320;DHT22;13256;49.012;8.610;2023-09-19T15:49:47;23.10;98.10
25320;DHT22;13256;49.012;8.610;2023-09-19T15:52:34;23.10;98.20
25320;DHT22;13256;49.012;8.610;2023-09-19T15:55:05;23.00;98.20
25320;DHT22;13256;49.012;8.610;2023-09-19T15:57:33;23.00;98.50
25320;DHT22;13256;49.012;8.610;2023-09-19T16:00:01;23.00;98.90
25320;DHT22;13256;49.012;8.610;2023-09-19T16:02:38;23.00;99.20
25320;DHT22;13256;49.012;8.610;2023-09-19T16:05:04;23.00;98.80
25320;DHT22;13256;49.012;8.610;2023-09-19T16:07:34;23.00;99.50
25320;DHT22;13256;49.012;8.610;2023-09-19T16:10:01;23.00;99.40
25320;DHT22;13256;49.012;8.610;2023-09-19T16:12:28;23.00;99.60
25320;DHT22;13256;49.012;8.610;2023-09-19T16:14:55;23.00;99.90
25320;DHT22;13256;49.012;8.610;2023-09-19T16:17:22;22.90;99.90
25320;DHT22;13256;49.012;8.610;2023-09-19T16:19:49;22.80;99.80
25320;DHT22;13256;49.012;8.610;2023-09-19T16:22:16;22.70;99.90
25320;DHT22;13256;49.012;8.610;2023-09-19T16:24:45;22.70;99.90
25320;DHT22;13256;49.012;8.610;2023-09-19T16:27:12;22.70;99.90
25320;DHT22;13256;49.012;8.610;2023-09-19T16:29:41;22.60;99.90
25320;DHT22;13256;49.012;8.610;2023-09-19T16:32:07;22.60;99.90
25320;DHT22;13256;49.012;8.610;2023-09-19T16:34:35;22.60;99.90
25320;DHT22;13256;49.012;8.610;2023-09-19T16:37:02;22.60;99.90
25320;DHT22;13256;49.012;8.610;2023-09-19T16:39:30;22.60;99.90
25320;DHT22;13256;49.012;8.610;2023-09-19T16:41:58;22.50;99.90
25320;DHT22;13256;49.012;8.610;2023-09-19T16:44:49;22.50;99.90
25320;DHT22;13256;49.012;8.610;2023-09-19T16:47:20;22.50;99.90
25320;DHT22;13256;49.012;8.610;2023-09-19T16:49:46;22.40;99.90
25320;DHT22;13256;49.012;8.610;2023-09-19T16:52:17;22.40;99.90
25320;DHT22;13256;49.012;8.610;2023-09-19T16:54:44;22.30;99.90